createdAt,value
2019-05-07T00:03:26.392Z,8.29
2019-05-07T00:08:20.363Z,8.30
2019-05-07T00:13:14.374Z,8.33
2019-05-07T00:18:08.329Z,8.42
2019-05-07T00:23:03.080Z,8.38
2019-05-07T00:27:57.284Z,8.43
2019-05-07T00:32:53.071Z,8.38
2019-05-07T00:37:49.143Z,8.37
2019-05-07T00:42:47.758Z,8.34
2019-05-07T00:47:42.623Z,8.31
2019-05-07T00:52:36.797Z,8.20
2019-05-07T00:57:32.360Z,8.28
2019-05-07T01:02:26.657Z,8.15
2019-05-07T01:07:22.708Z,8.20
2019-05-07T01:12:16.472Z,8.21
2019-05-07T01:17:10.458Z,8.14
2019-05-07T01:22:04.513Z,8.18
2019-05-07T01:26:58.482Z,8.10
2019-05-07T01:32:00.385Z,8.02
2019-05-07T01:36:54.375Z,8.03
2019-05-07T01:41:48.343Z,8.00
2019-05-07T01:46:42.341Z,7.95
2019-05-07T01:51:36.289Z,7.88
2019-05-07T01:56:30.253Z,7.89
2019-05-07T02:01:24.407Z,7.84
2019-05-07T02:06:26.227Z,7.87
2019-05-07T02:11:34.797Z,7.85
2019-05-07T02:16:28.759Z,7.84
2019-05-07T02:21:22.722Z,7.94
2019-05-07T02:26:16.780Z,7.86
2019-05-07T02:31:14.663Z,7.91
2019-05-07T02:36:06.604Z,7.98
2019-05-07T02:41:03.011Z,7.94
2019-05-07T02:46:17.504Z,8.01
2019-05-07T02:50:56.866Z,8.00
2019-05-07T02:55:53.010Z,8.04
2019-05-07T03:00:47.294Z,7.89
2019-05-07T03:05:43.095Z,7.87
2019-05-07T03:10:37.210Z,7.89
2019-05-07T03:15:33.140Z,7.88
2019-05-07T03:20:35.250Z,7.88
2019-05-07T03:25:34.047Z,7.87
2019-05-07T03:30:35.970Z,7.78
2019-05-07T03:35:36.398Z,7.68
2019-05-07T03:40:27.158Z,7.68
2019-05-07T03:45:26.081Z,7.65
2019-05-07T03:50:23.106Z,7.62
2019-05-07T03:55:16.014Z,7.65
2019-05-07T04:00:13.092Z,7.62
2019-05-07T04:05:07.031Z,7.59
2019-05-07T04:10:04.468Z,7.57
2019-05-07T04:14:58.657Z,7.59
2019-05-07T04:19:53.271Z,7.58
2019-05-07T04:24:49.277Z,7.59
2019-05-07T04:29:43.236Z,7.61
2019-05-07T04:34:53.175Z,7.50
2019-05-07T04:39:53.945Z,7.51
2019-05-07T04:44:48.108Z,7.42
2019-05-07T04:49:43.639Z,7.42
2019-05-07T04:54:37.741Z,7.31
2019-05-07T04:59:32.978Z,7.39
2019-05-07T05:04:34.022Z,7.41
2019-05-07T05:09:23.479Z,7.70
2019-05-07T05:14:17.572Z,7.79
2019-05-07T05:19:12.596Z,8.06
2019-05-07T05:24:17.668Z,8.32
2019-05-07T05:29:12.180Z,8.63
2019-05-07T05:34:06.292Z,8.82
2019-05-07T05:39:02.554Z,8.96
2019-05-07T05:44:02.420Z,8.99
2019-05-07T05:48:56.555Z,8.97
2019-05-07T05:53:52.559Z,8.98
2019-05-07T05:59:02.795Z,9.16
2019-05-07T06:04:02.959Z,9.37
2019-05-07T06:09:12.334Z,9.31
2019-05-07T06:14:08.386Z,9.37
2019-05-07T06:19:04.776Z,9.48
2019-05-07T06:24:02.230Z,9.62
2019-05-07T06:28:56.299Z,9.41
2019-05-07T06:33:52.245Z,9.41
2019-05-07T06:38:53.123Z,9.29
2019-05-07T06:43:54.897Z,9.74
2019-05-07T06:48:48.945Z,9.55
2019-05-07T06:53:42.938Z,9.93
2019-05-07T06:58:55.723Z,10.40
2019-05-07T07:03:54.371Z,10.69
2019-05-07T07:08:59.034Z,10.82
2019-05-07T07:13:53.101Z,10.94
2019-05-07T07:18:51.853Z,10.93
2019-05-07T07:23:43.101Z,11.13
2019-05-07T07:28:37.025Z,11.20
2019-05-07T07:33:32.889Z,11.36
2019-05-07T07:38:33.399Z,11.75
2019-05-07T07:43:27.463Z,12.25
2019-05-07T07:48:24.105Z,12.24
2019-05-07T07:53:17.296Z,12.04
2019-05-07T07:58:13.170Z,12.08
2019-05-07T08:03:09.109Z,12.41
2019-05-07T08:08:03.178Z,13.47
2019-05-07T08:12:57.246Z,13.44
2019-05-07T08:17:52.198Z,13.39
2019-05-07T08:22:46.519Z,13.63
2019-05-07T08:27:41.980Z,14.45
2019-05-07T08:32:43.992Z,13.94
2019-05-07T08:37:38.097Z,13.28
2019-05-07T08:42:32.178Z,13.20
2019-05-07T08:47:33.832Z,12.53
2019-05-07T08:52:27.915Z,11.98
2019-05-07T08:57:22.764Z,11.81
2019-05-07T09:02:17.104Z,11.55
2019-05-07T09:07:13.028Z,11.65
2019-05-07T09:12:07.034Z,11.65
2019-05-07T09:17:02.454Z,11.54
2019-05-07T09:21:56.876Z,11.34
2019-05-07T09:26:55.722Z,11.66
2019-05-07T09:31:52.551Z,11.98
2019-05-07T09:36:48.711Z,12.04
2019-05-07T09:41:42.671Z,12.22
2019-05-07T09:46:36.743Z,12.47
2019-05-07T09:51:32.167Z,12.49
2019-05-07T09:56:26.498Z,12.54
2019-05-07T10:01:20.772Z,12.94
2019-05-07T10:06:14.860Z,13.14
2019-05-07T10:11:12.132Z,12.98
2019-05-07T10:16:07.800Z,13.07
2019-05-07T10:21:02.602Z,13.31
2019-05-07T10:25:56.744Z,13.57
2019-05-07T10:30:52.174Z,13.93
2019-05-07T10:35:46.385Z,14.80
2019-05-07T10:40:40.398Z,16.30
2019-05-07T10:45:39.023Z,17.36
2019-05-07T10:50:39.129Z,18.15
2019-05-07T10:55:32.765Z,18.69
2019-05-07T11:00:27.347Z,18.04
2019-05-07T11:05:22.032Z,18.66
2019-05-07T11:10:16.279Z,18.03
2019-05-07T11:15:12.424Z,16.84
2019-05-07T11:20:07.388Z,15.15
2019-05-07T11:25:03.148Z,15.61
2019-05-07T11:29:57.358Z,15.81
2019-05-07T11:34:52.808Z,15.57
2019-05-07T11:39:47.329Z,15.67
2019-05-07T11:44:42.383Z,16.19
2019-05-07T11:49:53.529Z,16.22
2019-05-07T11:54:47.498Z,17.09
2019-05-07T11:59:41.881Z,17.87
2019-05-07T12:04:35.879Z,18.94
2019-05-07T12:09:29.856Z,18.75
2019-05-07T12:14:30.961Z,20.06
2019-05-07T12:19:19.748Z,22.76
2019-05-07T12:24:16.367Z,20.32
2019-05-07T12:29:11.659Z,17.59
2019-05-07T12:34:07.522Z,16.22
2019-05-07T12:39:02.254Z,15.46
2019-05-07T12:43:57.675Z,14.67
2019-05-07T12:48:52.397Z,15.03
2019-05-07T12:53:52.482Z,15.60
2019-05-07T12:58:46.618Z,16.56
2019-05-07T13:03:42.867Z,17.41
2019-05-07T13:08:36.917Z,18.81
2019-05-07T13:13:32.036Z,20.82
2019-05-07T13:18:26.107Z,20.82
2019-05-07T13:23:22.337Z,27.82
2019-05-07T13:28:15.991Z,32.16
2019-05-07T13:33:12.177Z,29.59
2019-05-07T13:38:07.962Z,25.90
2019-05-07T13:43:11.747Z,21.43
2019-05-07T13:48:13.715Z,20.42
2019-05-07T13:53:07.921Z,19.17
2019-05-07T13:58:02.111Z,19.28
2019-05-07T14:02:56.555Z,21.11
2019-05-07T14:07:50.721Z,20.60
2019-05-07T14:12:44.758Z,19.25
2019-05-07T14:17:39.019Z,19.14
2019-05-07T14:22:33.415Z,19.91
2019-05-07T14:27:27.400Z,21.26
2019-05-07T14:32:38.637Z,20.94
2019-05-07T14:37:34.704Z,20.07
2019-05-07T14:42:32.701Z,19.41
2019-05-07T14:47:26.535Z,17.87
2019-05-07T14:52:30.303Z,17.49
2019-05-07T14:57:16.771Z,17.70
2019-05-07T15:02:12.082Z,20.20
2019-05-07T15:07:06.525Z,18.61
2019-05-07T15:12:02.199Z,18.63
2019-05-07T15:16:58.116Z,19.00
2019-05-07T15:21:54.103Z,18.91
2019-05-07T15:26:50.080Z,17.57
2019-05-07T15:31:55.390Z,17.53
2019-05-07T15:36:49.470Z,18.87
2019-05-07T15:41:43.449Z,19.46
2019-05-07T15:46:37.576Z,19.33
2019-05-07T15:51:32.802Z,20.35
2019-05-07T15:56:26.818Z,18.73
2019-05-07T16:01:22.189Z,17.74
2019-05-07T16:06:16.425Z,18.21
2019-05-07T16:11:12.484Z,20.11
2019-05-07T16:16:06.639Z,18.72
2019-05-07T16:21:02.090Z,17.80
2019-05-07T16:25:56.519Z,17.66
2019-05-07T16:30:52.168Z,17.53
2019-05-07T16:35:46.272Z,17.37
2019-05-07T16:40:40.269Z,16.93
2019-05-07T16:45:34.250Z,16.53
2019-05-07T16:50:32.634Z,16.21
2019-05-07T16:55:36.912Z,16.12
2019-05-07T17:00:35.906Z,15.92
2019-05-07T17:05:31.948Z,16.12
2019-05-07T17:10:25.909Z,16.21
2019-05-07T17:15:22.832Z,16.12
2019-05-07T17:20:18.090Z,15.73
2019-05-07T17:25:14.212Z,15.45
2019-05-07T17:30:08.487Z,15.27
2019-05-07T17:35:03.372Z,15.26
2019-05-07T17:39:57.398Z,14.84
2019-05-07T17:44:51.863Z,14.55
2019-05-07T17:49:45.900Z,14.18
2019-05-07T17:54:42.235Z,14.21
2019-05-07T17:59:35.893Z,14.24
2019-05-07T18:04:32.570Z,14.19
2019-05-07T18:09:27.524Z,14.11
2019-05-07T18:14:22.785Z,14.04
2019-05-07T18:19:17.023Z,13.90
2019-05-07T18:24:14.294Z,13.73
2019-05-07T18:29:07.131Z,13.60
2019-05-07T18:34:02.705Z,13.39
2019-05-07T18:38:56.761Z,13.21
2019-05-07T18:43:54.373Z,13.06
2019-05-07T18:48:46.910Z,12.89
2019-05-07T18:53:42.486Z,12.70
2019-05-07T18:58:36.956Z,12.44
2019-05-07T19:03:32.532Z,12.20
2019-05-07T19:08:26.946Z,12.01
2019-05-07T19:13:22.157Z,11.80
2019-05-07T19:18:16.563Z,11.65
2019-05-07T19:23:10.807Z,11.56
2019-05-07T19:28:06.766Z,11.55
2019-05-07T19:33:00.848Z,11.39
2019-05-07T19:37:54.950Z,11.27
2019-05-07T19:42:49.174Z,11.19
2019-05-07T19:47:43.267Z,11.21
2019-05-07T19:52:37.481Z,11.19
2019-05-07T19:57:33.482Z,11.11
2019-05-07T20:02:29.612Z,11.10
2019-05-07T20:07:23.699Z,10.91
2019-05-07T20:12:17.734Z,10.88
2019-05-07T20:17:12.352Z,10.90
2019-05-07T20:22:06.573Z,10.98
2019-05-07T20:27:02.870Z,10.98
2019-05-07T20:31:56.606Z,10.93
2019-05-07T20:36:51.817Z,10.96
2019-05-07T20:41:45.932Z,10.89
2019-05-07T20:46:41.986Z,10.67
2019-05-07T20:51:35.905Z,10.55
2019-05-07T20:56:49.075Z,10.39
2019-05-07T21:01:43.150Z,10.23
2019-05-07T21:06:37.236Z,10.14
2019-05-07T21:11:32.347Z,10.06
2019-05-07T21:16:26.621Z,10.00
2019-05-07T21:21:21.826Z,9.98
2019-05-07T21:26:15.950Z,9.91
2019-05-07T21:31:11.856Z,10.01
2019-05-07T21:36:05.798Z,10.01
2019-05-07T21:40:59.820Z,10.05
2019-05-07T21:45:53.793Z,10.16
2019-05-07T21:50:47.816Z,10.25
2019-05-07T21:55:44.251Z,10.14
2019-05-07T22:00:56.794Z,10.23
2019-05-07T22:05:51.755Z,10.20
2019-05-07T22:10:46.817Z,10.16
2019-05-07T22:15:42.272Z,10.29
2019-05-07T22:20:36.461Z,10.44
2019-05-07T22:25:32.673Z,10.40
2019-05-07T22:30:28.341Z,10.39
2019-05-07T22:35:24.249Z,10.36
2019-05-07T22:40:18.340Z,10.28
2019-05-07T22:45:12.742Z,10.31
2019-05-07T22:50:06.729Z,10.25
2019-05-07T22:55:00.692Z,10.29
2019-05-07T22:59:54.658Z,10.39
2019-05-07T23:04:48.611Z,10.34
2019-05-07T23:09:44.889Z,10.38
2019-05-07T23:14:38.565Z,10.35
2019-05-07T23:19:32.813Z,10.35
2019-05-07T23:24:27.102Z,10.23
2019-05-07T23:29:22.436Z,10.19
2019-05-07T23:34:16.897Z,10.13
2019-05-07T23:39:12.765Z,10.06
2019-05-07T23:44:12.437Z,10.01
2019-05-07T23:49:06.740Z,10.00
2019-05-07T23:54:02.799Z,10.00
2019-05-07T23:58:56.723Z,9.78
